Time;durP1;ratioP1;P1;durP2;ratioP2;P2;SDS_P1;SDS_P2;PMS_P1;PMS_P2;Temp;Humidity;BMP_temperature;BMP_pressure;BME280_temperature;BME280_humidity;BME280_pressure;Samples;Min_cycle;Max_cycle;Signal;HPM_P1;HPM_P2
2021/11/05 00:00:05;;;;;;;11.23;9.82;;;;;;;2.24;100.00;95729.47;1026594;28;20027;-67
2021/11/05 00:00:36;;;;;;;14.06;9.66;;;;;;;2.23;100.00;95730.50;1029550;28;20567;-66
2021/11/05 00:01:06;;;;;;;10.65;9.07;;;;;;;2.24;100.00;95732.06;1018398;29;20087;-67
2021/11/05 00:01:37;;;;;;;13.13;10.90;;;;;;;2.23;100.00;95727.91;1014799;29;20031;-66
2021/11/05 00:02:07;;;;;;;15.27;11.10;;;;;;;2.23;100.00;95731.28;1018574;29;20423;-66
2021/11/05 00:02:38;;;;;;;12.65;10.30;;;;;;;2.20;100.00;95731.69;1022926;28;20028;-66
2021/11/05 00:03:08;;;;;;;14.13;10.68;;;;;;;2.18;100.00;95722.53;1030245;28;20038;-66
2021/11/05 00:03:39;;;;;;;14.07;10.52;;;;;;;2.18;100.00;95738.88;1029124;28;20409;-67
2021/11/05 00:04:10;;;;;;;15.40;11.25;;;;;;;2.09;100.00;95720.22;1019927;28;20872;-68
2021/11/05 00:04:40;;;;;;;14.16;11.14;;;;;;;2.10;100.00;95732.16;1023199;28;20030;-67
2021/11/05 00:05:15;;;;;;;14.30;10.93;;;;;;;2.10;100.00;95726.19;1019361;28;20039;-66
2021/11/05 00:05:45;;;;;;;12.78;10.24;;;;;;;2.06;100.00;95720.63;1030383;28;20014;-68
2021/11/05 00:06:16;;;;;;;11.00;9.80;;;;;;;2.04;100.00;95717.44;1030178;28;20520;-67
2021/11/05 00:06:46;;;;;;;15.80;10.57;;;;;;;2.11;100.00;95726.00;1030667;28;20085;-67
2021/11/05 00:07:16;;;;;;;13.23;10.27;;;;;;;2.18;100.00;95733.72;1028805;28;20019;-67
2021/11/05 00:07:47;;;;;;;15.02;10.60;;;;;;;2.15;100.00;95728.13;1030360;28;20474;-66
2021/11/05 00:08:18;;;;;;;11.63;9.93;;;;;;;2.19;100.00;95724.16;1014942;29;20133;-67
2021/11/05 00:08:49;;;;;;;14.52;10.50;;;;;;;2.14;100.00;95727.34;1018694;29;20586;-66
2021/11/05 00:09:19;;;;;;;13.63;10.18;;;;;;;2.16;100.00;95730.53;1019006;29;20091;-66
2021/11/05 00:09:50;;;;;;;14.77;10.88;;;;;;;2.16;100.00;95727.16;1022418;28;20128;-67
2021/11/05 00:10:20;;;;;;;12.23;10.05;;;;;;;2.14;100.00;95722.16;1026708;28;20023;-66
2021/11/05 00:10:51;;;;;;;18.63;10.57;;;;;;;2.18;100.00;95728.53;1022392;28;20031;-66
2021/11/05 00:11:21;;;;;;;12.57;10.57;;;;;;;2.15;100.00;95717.78;1026821;28;20018;-67
2021/11/05 00:11:52;;;;;;;11.23;9.80;;;;;;;2.26;100.00;95727.47;1022848;28;20470;-67
2021/11/05 00:12:22;;;;;;;11.70;9.45;;;;;;;2.24;100.00;95730.25;1022644;29;20027;-66
2021/11/05 00:12:53;;;;;;;12.75;10.30;;;;;;;2.19;100.00;95718.97;1026721;28;20026;-67
2021/11/05 00:13:23;;;;;;;13.35;10.27;;;;;;;2.27;100.00;95729.06;1027232;28;20023;-67
2021/11/05 00:13:53;;;;;;;13.77;10.73;;;;;;;2.26;100.00;95730.06;1030555;28;20413;-67
2021/11/05 00:14:24;;;;;;;12.27;10.18;;;;;;;2.26;100.00;95733.44;1029730;28;20437;-67
2021/11/05 00:14:54;;;;;;;12.15;10.25;;;;;;;2.28;100.00;95723.69;1026808;28;20034;-67
2021/11/05 00:15:25;;;;;;;15.13;10.55;;;;;;;2.27;100.00;95727.25;1026645;28;20026;-66
2021/11/05 00:15:55;;;;;;;14.02;10.88;;;;;;;2.28;100.00;95722.88;1033518;28;20022;-65
2021/11/05 00:16:26;;;;;;;14.40;10.23;;;;;;;2.25;100.00;95729.28;1030632;28;20014;-67
2021/11/05 00:16:56;;;;;;;12.15;10.23;;;;;;;2.25;100.00;95728.50;1030417;28;20069;-67
2021/11/05 00:17:26;;;;;;;13.70;10.25;;;;;;;2.21;100.00;95716.94;1030907;28;20034;-67
2021/11/05 00:17:57;;;;;;;13.93;10.55;;;;;;;2.27;100.00;95726.47;1022016;28;20478;-66
2021/11/05 00:18:27;;;;;;;11.93;9.82;;;;;;;2.25;100.00;95726.69;1024709;28;20054;-67
2021/11/05 00:19:00;;;;;;;13.45;10.35;;;;;;;2.30;100.00;95726.84;1026676;28;20019;-66
2021/11/05 00:19:31;;;;;;;11.02;9.42;;;;;;;2.32;100.00;95731.81;1027064;28;20158;-66
2021/11/05 00:20:02;;;;;;;14.00;10.38;;;;;;;2.33;100.00;95730.81;1022851;28;20023;-66
2021/11/05 00:20:33;;;;;;;12.28;10.02;;;;;;;2.31;100.00;95727.63;1014580;29;20012;-67
2021/11/05 00:21:03;;;;;;;12.20;9.82;;;;;;;2.33;100.00;95725.63;1017806;29;20019;-66
2021/11/05 00:21:34;;;;;;;12.27;10.18;;;;;;;2.26;100.00;95714.53;1019001;28;20394;-65
2021/11/05 00:22:05;;;;;;;12.65;10.27;;;;;;;2.28;100.00;95720.28;1019016;28;20030;-66
2021/11/05 00:22:36;;;;;;;15.06;9.56;;;;;;;2.37;100.00;95726.78;1021915;28;20668;-66
2021/11/05 00:23:08;;;;;;;12.35;10.10;;;;;;;2.36;100.00;95731.19;1019135;29;20034;-66
2021/11/05 00:23:38;;;;;;;13.34;10.46;;;;;;;2.37;100.00;95724.19;1027486;28;20509;-67
2021/11/05 00:24:09;;;;;;;14.73;10.52;;;;;;;2.24;100.00;95717.31;1035187;28;20033;-66
2021/11/05 00:24:39;;;;;;;12.98;9.90;;;;;;;2.31;100.00;95719.84;1030319;28;20527;-66
2021/11/05 00:25:10;;;;;;;12.90;10.70;;;;;;;2.33;100.00;95733.41;1030512;28;20030;-67
2021/11/05 00:25:40;;;;;;;13.70;10.77;;;;;;;2.31;100.00;95727.63;1027113;28;20548;-66
2021/11/05 00:26:10;;;;;;;14.65;11.02;;;;;;;2.32;100.00;95724.06;1033215;28;20026;-66
2021/11/05 00:26:41;;;;;;;13.57;10.32;;;;;;;2.30;100.00;95726.84;1038117;28;20021;-66
2021/11/05 00:27:12;;;;;;;11.85;10.43;;;;;;;2.32;100.00;95729.22;1034899;28;20022;-67
2021/11/05 00:27:42;;;;;;;12.73;10.15;;;;;;;2.28;100.00;95717.69;1029909;28;20392;-67
2021/11/05 00:28:15;;;;;;;12.23;10.55;;;;;;;2.36;100.00;95728.59;1026822;28;20011;-67
2021/11/05 00:28:46;;;;;;;13.42;10.94;;;;;;;2.35;100.00;95721.03;1026216;28;20453;-66
2021/11/05 00:29:17;;;;;;;12.90;10.55;;;;;;;2.38;100.00;95725.78;1022740;28;20031;-66
2021/11/05 00:29:47;;;;;;;12.43;9.90;;;;;;;2.38;100.00;95728.38;1027043;28;20011;-66
2021/11/05 00:30:18;;;;;;;12.88;10.55;;;;;;;2.33;100.00;95718.66;1026806;28;20018;-66
2021/11/05 00:30:48;;;;;;;11.63;9.85;;;;;;;2.38;100.00;95733.53;1032850;28;20638;-67
2021/11/05 00:31:19;;;;;;;11.02;9.52;;;;;;;2.35;100.00;95728.81;1034492;28;20013;-66
2021/11/05 00:31:49;;;;;;;14.75;10.65;;;;;;;2.33;100.00;95726.41;1033727;28;20061;-66
2021/11/05 00:32:20;;;;;;;13.00;10.50;;;;;;;2.29;100.00;95724.47;1029857;28;20554;-66
2021/11/05 00:32:50;;;;;;;11.35;10.00;;;;;;;2.33;100.00;95733.41;1026132;28;20015;-65
2021/11/05 00:33:20;;;;;;;12.85;10.43;;;;;;;2.31;100.00;95733.63;1022502;28;20023;-66
2021/11/05 00:33:51;;;;;;;15.32;10.75;;;;;;;2.30;100.00;95734.59;1024137;28;20426;-67
2021/11/05 00:34:21;;;;;;;14.30;10.52;;;;;;;2.30;100.00;95731.22;1025647;28;20041;-66
2021/11/05 00:34:52;;;;;;;12.38;10.40;;;;;;;2.30;100.00;95726.84;1030453;28;20521;-66
2021/11/05 00:35:22;;;;;;;13.70;11.45;;;;;;;2.27;100.00;95723.88;1030511;28;20018;-67
2021/11/05 00:35:53;;;;;;;13.07;10.45;;;;;;;2.28;100.00;95728.88;1026584;28;20026;-66
2021/11/05 00:36:23;;;;;;;14.05;10.63;;;;;;;2.27;100.00;95734.22;1014730;29;20043;-67
2021/11/05 00:36:54;;;;;;;10.88;9.68;;;;;;;2.19;100.00;95718.97;1010787;29;20028;-66
2021/11/05 00:37:24;;;;;;;13.20;10.55;;;;;;;2.24;100.00;95726.88;1018309;29;20016;-66
2021/11/05 00:37:54;;;;;;;15.57;10.90;;;;;;;2.21;100.00;95727.31;1023917;28;20074;-67
2021/11/05 00:38:25;;;;;;;13.75;10.80;;;;;;;2.25;100.00;95736.25;1026686;28;20026;-66
2021/11/05 00:38:55;;;;;;;11.70;9.95;;;;;;;2.18;100.00;95717.38;1030578;28;20015;-66
2021/11/05 00:39:26;;;;;;;13.85;10.75;;;;;;;2.19;100.00;95730.13;1019412;29;20027;-66
2021/11/05 00:39:56;;;;;;;12.98;11.10;;;;;;;2.15;100.00;95731.53;1015523;29;20031;-67
2021/11/05 00:40:29;;;;;;;13.00;10.82;;;;;;;2.11;100.00;95723.41;1023024;29;20023;-66
2021/11/05 00:40:59;;;;;;;13.80;10.96;;;;;;;2.12;100.00;95735.34;1016475;29;20028;-67
2021/11/05 00:41:30;;;;;;;12.82;10.88;;;;;;;2.11;100.00;95728.59;1017247;29;20023;-66
2021/11/05 00:42:00;;;;;;;11.90;9.75;;;;;;;2.10;100.00;95726.97;1023488;29;20027;-67
2021/11/05 00:42:30;;;;;;;14.05;10.88;;;;;;;2.00;100.00;95716.28;1024208;28;20027;-63
2021/11/05 00:43:01;;;;;;;13.32;11.23;;;;;;;2.08;100.00;95731.59;1025446;28;20034;-67
2021/11/05 00:43:31;;;;;;;12.02;10.35;;;;;;;2.06;100.00;95731.00;1026705;28;20026;-66
2021/11/05 00:44:02;;;;;;;15.13;11.38;;;;;;;2.04;100.00;95730.41;1030660;28;20048;-66
2021/11/05 00:44:32;;;;;;;15.20;11.20;;;;;;;2.01;100.00;95728.25;1034909;28;20555;-66
2021/11/05 00:45:03;;;;;;;14.20;11.25;;;;;;;1.99;100.00;95738.00;1039227;28;20033;-66
2021/11/05 00:45:34;;;;;;;13.60;10.66;;;;;;;1.98;100.00;95736.44;1034290;28;20022;-66
2021/11/05 00:46:04;;;;;;;15.75;11.35;;;;;;;1.93;100.00;95728.47;1034916;28;20136;-66
2021/11/05 00:46:35;;;;;;;16.17;11.05;;;;;;;1.91;100.00;95733.06;1027241;28;20149;-66
2021/11/05 00:47:05;;;;;;;14.20;11.25;;;;;;;1.86;100.00;95731.09;1023002;28;20055;-66
2021/11/05 00:47:36;;;;;;;15.93;12.00;;;;;;;1.79;100.00;95722.59;1022303;28;20023;-65
2021/11/05 00:48:07;;;;;;;14.27;10.60;;;;;;;1.82;100.00;95729.16;1022745;28;20615;-67
2021/11/05 00:48:37;;;;;;;14.20;11.43;;;;;;;1.80;100.00;95731.13;1030894;28;20026;-67
2021/11/05 00:49:08;;;;;;;15.70;11.70;;;;;;;1.76;100.00;95717.84;1035221;28;20018;-66
2021/11/05 00:49:38;;;;;;;16.05;11.68;;;;;;;1.83;100.00;95728.13;1027060;28;20046;-66
2021/11/05 00:50:09;;;;;;;16.08;12.23;;;;;;;1.83;100.00;95730.72;1034974;28;20026;-67
2021/11/05 00:50:39;;;;;;;14.93;11.73;;;;;;;1.80;100.00;95724.16;1028131;28;20057;-66
2021/11/05 00:51:10;;;;;;;14.20;11.68;;;;;;;1.79;100.00;95724.38;1019318;29;20027;-65
2021/11/05 00:51:40;;;;;;;15.15;12.18;;;;;;;1.73;100.00;95720.03;1019140;29;20553;-66
2021/11/05 00:52:10;;;;;;;15.15;11.55;;;;;;;1.78;100.00;95733.16;1014991;29;20036;-65
2021/11/05 00:52:41;;;;;;;15.38;12.13;;;;;;;1.72;100.00;95719.25;1022775;28;20027;-67
2021/11/05 00:53:11;;;;;;;15.13;12.50;;;;;;;1.79;100.00;95729.56;1019033;29;20062;-65
2021/11/05 00:53:42;;;;;;;14.00;11.07;;;;;;;1.76;100.00;95729.97;1022206;28;20027;-66
2021/11/05 00:54:12;;;;;;;16.02;11.85;;;;;;;1.75;100.00;95733.56;1026764;28;20023;-66
2021/11/05 00:54:43;;;;;;;16.27;11.65;;;;;;;1.76;100.00;95732.56;1026810;28;20035;-65
2021/11/05 00:55:13;;;;;;;15.52;11.45;;;;;;;1.77;100.00;95736.72;1034695;28;20192;-66
2021/11/05 00:55:44;;;;;;;14.98;12.20;;;;;;;1.71;100.00;95722.03;1027045;28;20022;-66
2021/11/05 00:56:15;;;;;;;13.95;11.68;;;;;;;1.72;100.00;95729.59;1020227;28;20027;-67
2021/11/05 00:56:45;;;;;;;16.98;11.26;;;;;;;1.76;100.00;95732.56;1022727;28;20019;-66
2021/11/05 00:57:16;;;;;;;17.40;12.65;;;;;;;1.70;100.00;95729.00;1027215;28;20026;-66
2021/11/05 00:57:46;;;;;;;15.73;12.48;;;;;;;1.76;100.00;95737.75;1028833;28;20118;-66
2021/11/05 00:58:17;;;;;;;15.48;11.35;;;;;;;1.74;100.00;95739.72;1037268;28;20029;-66
2021/11/05 00:58:47;;;;;;;15.60;11.88;;;;;;;1.71;100.00;95732.38;1026766;28;20110;-66
2021/11/05 00:59:18;;;;;;;16.42;12.25;;;;;;;1.71;100.00;95740.13;1026676;28;20069;-67
2021/11/05 00:59:48;;;;;;;16.25;12.18;;;;;;;1.69;100.00;95736.97;1022565;28;20023;-66
2021/11/05 01:00:19;;;;;;;15.52;11.75;;;;;;;1.59;100.00;95722.69;1018408;29;20030;-66
2021/11/05 01:00:50;;;;;;;17.08;12.20;;;;;;;1.64;100.00;95733.22;1024411;28;20045;-67
2021/11/05 01:01:20;;;;;;;16.13;11.73;;;;;;;1.62;100.00;95735.22;1026875;28;20262;-66
2021/11/05 01:01:51;;;;;;;15.45;12.02;;;;;;;1.67;100.00;95741.56;1030467;28;20040;-65
2021/11/05 01:02:21;;;;;;;15.20;12.18;;;;;;;1.65;100.00;95739.97;1031057;28;20030;-68
2021/11/05 01:02:52;;;;;;;14.32;11.90;;;;;;;1.67;100.00;95736.38;1030320;28;20509;-66
2021/11/05 01:03:22;;;;;;;15.88;12.40;;;;;;;1.64;100.00;95743.56;1030819;28;20042;-66
2021/11/05 01:03:53;;;;;;;15.13;12.23;;;;;;;1.64;100.00;95740.97;1031049;28;20022;-66
2021/11/05 01:04:23;;;;;;;15.50;11.88;;;;;;;1.64;100.00;95738.41;1030893;28;20018;-66
2021/11/05 01:04:53;;;;;;;16.00;12.82;;;;;;;1.65;100.00;95747.72;1034654;28;20028;-66
2021/11/05 01:05:25;;;;;;;17.92;12.95;;;;;;;1.67;100.00;95744.94;1034977;28;20042;-66
2021/11/05 01:05:55;;;;;;;15.20;12.06;;;;;;;1.68;100.00;95746.53;1034714;28;20734;-66
2021/11/05 01:06:26;;;;;;;16.27;12.52;;;;;;;1.66;100.00;95740.75;1033669;28;20036;-66
2021/11/05 01:06:56;;;;;;;16.15;12.75;;;;;;;1.62;100.00;95735.22;1030808;28;20455;-66
2021/11/05 01:07:27;;;;;;;16.35;12.85;;;;;;;1.68;100.00;95745.72;1026851;28;20049;-66
2021/11/05 01:07:57;;;;;;;18.15;12.25;;;;;;;1.64;100.00;95746.16;1025623;28;20023;-66
2021/11/05 01:08:27;;;;;;;20.83;14.65;;;;;;;1.64;100.00;95748.75;1026604;28;20033;-64
2021/11/05 01:08:58;;;;;;;16.05;12.68;;;;;;;1.56;100.00;95733.44;1030057;28;20076;-66
2021/11/05 01:09:28;;;;;;;15.45;12.30;;;;;;;1.65;100.00;95749.53;1025917;28;20039;-66
2021/11/05 01:09:59;;;;;;;16.48;13.00;;;;;;;1.65;100.00;95741.78;1026655;28;20114;-66
2021/11/05 01:10:29;;;;;;;15.52;12.18;;;;;;;1.60;100.00;95734.63;1026460;28;20022;-65
2021/11/05 01:11:00;;;;;;;15.63;12.38;;;;;;;1.61;100.00;95751.72;1024976;28;20544;-66
2021/11/05 01:11:31;;;;;;;16.35;12.85;;;;;;;1.60;100.00;95744.16;1024493;28;20026;-65
2021/11/05 01:12:01;;;;;;;16.98;12.42;;;;;;;1.64;100.00;95745.34;1017872;29;20078;-66
2021/11/05 01:12:32;;;;;;;19.92;13.82;;;;;;;1.60;100.00;95747.53;1023466;28;20038;-66
2021/11/05 01:13:03;;;;;;;18.30;12.38;;;;;;;1.53;100.00;95736.44;1024481;28;20073;-65
2021/11/05 01:13:34;;;;;;;18.30;12.90;;;;;;;1.58;100.00;95748.78;1024781;28;20054;-66
2021/11/05 01:14:04;;;;;;;18.40;13.52;;;;;;;1.55;100.00;95747.38;1016283;29;20032;-65
2021/11/05 01:14:35;;;;;;;19.25;12.65;;;;;;;1.52;100.00;95740.03;1023296;28;20030;-67
2021/11/05 01:15:07;;;;;;;16.35;12.13;;;;;;;1.54;100.00;95747.56;1025413;28;20046;-66
2021/11/05 01:15:37;;;;;;;17.54;12.94;;;;;;;1.57;100.00;95747.94;1017281;29;20031;-66
2021/11/05 01:16:08;;;;;;;17.80;13.73;;;;;;;1.49;100.00;95735.28;1017592;29;20039;-65
2021/11/05 01:16:38;;;;;;;16.23;12.85;;;;;;;1.56;100.00;95745.59;1014812;29;20039;-67
2021/11/05 01:17:08;;;;;;;16.48;13.02;;;;;;;1.51;100.00;95741.03;1022285;28;20031;-65
2021/11/05 01:17:39;;;;;;;18.38;14.07;;;;;;;1.56;100.00;95746.38;1025305;28;20173;-65
2021/11/05 01:18:10;;;;;;;17.92;13.82;;;;;;;1.58;100.00;95749.56;1020615;28;20045;-65
2021/11/05 01:18:40;;;;;;;18.35;13.82;;;;;;;1.52;100.00;95737.44;1017509;29;20027;-66
2021/11/05 01:19:11;;;;;;;17.05;13.32;;;;;;;1.61;100.00;95753.50;1022984;28;20030;-66
2021/11/05 01:19:41;;;;;;;15.70;12.40;;;;;;;1.61;100.00;95754.31;1018615;29;20018;-66
2021/11/05 01:20:14;;;;;;;16.58;13.10;;;;;;;1.61;100.00;95753.50;1020090;29;20016;-66
2021/11/05 01:20:44;;;;;;;17.96;12.86;;;;;;;1.65;100.00;95758.06;1016151;29;20110;-65
2021/11/05 01:21:16;;;;;;;17.30;12.75;;;;;;;1.67;100.00;95755.28;1014510;29;20025;-66
2021/11/05 01:21:46;;;;;;;18.40;13.60;;;;;;;1.64;100.00;95753.09;1008894;29;20273;-66
2021/11/05 01:22:17;;;;;;;17.17;13.73;;;;;;;1.65;100.00;95755.50;1011958;29;20017;-65
2021/11/05 01:22:47;;;;;;;15.30;12.55;;;;;;;1.70;100.00;95754.06;1025364;28;20030;-66
2021/11/05 01:23:21;;;;;;;17.27;12.75;;;;;;;1.70;100.00;95752.28;1031288;28;20053;-66
2021/11/05 01:23:51;;;;;;;17.24;13.28;;;;;;;1.69;100.00;95753.28;1035532;28;20033;-66
2021/11/05 01:24:22;;;;;;;16.52;13.40;;;;;;;1.71;100.00;95753.88;1031914;28;20022;-66
2021/11/05 01:24:52;;;;;;;18.23;14.43;;;;;;;1.73;100.00;95758.84;1031398;28;20065;-66
2021/11/05 01:25:23;;;;;;;18.55;13.20;;;;;;;1.73;100.00;95761.41;1031012;28;20030;-66
2021/11/05 01:25:53;;;;;;;16.98;12.93;;;;;;;1.69;100.00;95749.91;1031774;28;20005;-66
2021/11/05 01:26:24;;;;;;;16.30;12.45;;;;;;;1.72;100.00;95757.25;1027158;28;20485;-67
2021/11/05 01:26:55;;;;;;;18.38;13.18;;;;;;;1.79;100.00;95756.22;1019749;29;20058;-66
2021/11/05 01:27:25;;;;;;;18.73;12.90;;;;;;;1.78;100.00;95759.03;1015822;29;20551;-65
2021/11/05 01:27:56;;;;;;;17.48;13.50;;;;;;;1.79;100.00;95758.81;1018835;29;20038;-66
2021/11/05 01:28:26;;;;;;;15.02;11.98;;;;;;;1.81;100.00;95763.75;1023693;28;20038;-66
2021/11/05 01:28:57;;;;;;;16.10;13.40;;;;;;;1.76;100.00;95755.84;1023358;29;20070;-66
2021/11/05 01:29:27;;;;;;;17.25;12.70;;;;;;;1.77;100.00;95749.66;1026457;28;20065;-65
2021/11/05 01:29:59;;;;;;;16.70;12.95;;;;;;;1.84;100.00;95763.34;1012057;29;20024;-66
2021/11/05 01:30:30;;;;;;;16.48;12.72;;;;;;;1.83;100.00;95759.19;1018041;29;20032;-66
2021/11/05 01:31:00;;;;;;;16.20;12.52;;;;;;;1.86;100.00;95761.38;1019710;29;20024;-66
2021/11/05 01:31:31;;;;;;;15.82;12.13;;;;;;;1.82;100.00;95755.81;1015825;29;20040;-66
2021/11/05 01:32:02;;;;;;;17.05;13.18;;;;;;;1.89;100.00;95760.94;1009648;29;20028;-64
2021/11/05 01:32:33;;;;;;;18.27;11.93;;;;;;;1.88;100.00;95761.97;1022317;29;20087;-64
2021/11/05 01:33:07;;;;;;;14.42;11.90;;;;;;;1.91;100.00;95764.09;1022600;28;20526;-67
2021/11/05 01:33:37;;;;;;;17.22;12.74;;;;;;;1.90;100.00;95762.53;1022924;28;20019;-67
2021/11/05 01:34:08;;;;;;;16.40;12.63;;;;;;;1.92;100.00;95770.88;1019987;29;20027;-66
2021/11/05 01:34:38;;;;;;;15.68;12.63;;;;;;;1.92;100.00;95770.88;1027672;28;20204;-67
2021/11/05 01:35:10;;;;;;;16.73;12.13;;;;;;;1.92;100.00;95764.94;1026892;28;20044;-65
2021/11/05 01:35:40;;;;;;;16.88;12.86;;;;;;;1.89;100.00;95760.94;1022051;28;20506;-66
2021/11/05 01:36:11;;;;;;;14.05;11.73;;;;;;;1.96;100.00;95766.88;1013918;29;20024;-66
2021/11/05 01:36:42;;;;;;;16.52;12.12;;;;;;;1.94;100.00;95774.03;1011628;29;20056;-67
2021/11/05 01:37:12;;;;;;;17.45;12.05;;;;;;;1.92;100.00;95768.31;1015811;29;20040;-66
2021/11/05 01:37:43;;;;;;;13.55;11.88;;;;;;;1.85;100.00;95759.78;1019005;29;20027;-66
2021/11/05 01:38:13;;;;;;;17.02;13.60;;;;;;;1.94;100.00;95770.66;1019770;29;20024;-65
2021/11/05 01:38:44;;;;;;;19.52;13.10;;;;;;;1.96;100.00;95768.69;1023435;29;20063;-67
2021/11/05 01:39:15;;;;;;;17.02;12.20;;;;;;;1.82;100.00;95755.03;1023915;29;20023;-67
2021/11/05 01:39:46;;;;;;;13.76;11.46;;;;;;;1.95;100.00;95770.47;1029389;28;20026;-67
2021/11/05 01:40:17;;;;;;;15.95;12.75;;;;;;;1.98;100.00;95777.00;1031402;28;20026;-66
2021/11/05 01:40:47;;;;;;;19.20;12.95;;;;;;;1.97;100.00;95775.44;1031323;28;20030;-67
2021/11/05 01:41:18;;;;;;;16.88;12.95;;;;;;;1.97;100.00;95772.84;1030989;28;20015;-66
2021/11/05 01:41:48;;;;;;;17.63;12.32;;;;;;;1.93;100.00;95767.28;1027078;28;20049;-67
2021/11/05 01:42:19;;;;;;;19.35;13.25;;;;;;;2.00;100.00;95780.19;1031729;28;20465;-66
2021/11/05 01:42:49;;;;;;;17.52;12.65;;;;;;;2.00;100.00;95772.44;1023395;28;20108;-65
2021/11/05 01:43:20;;;;;;;15.13;12.52;;;;;;;2.01;100.00;95774.81;1027401;28;20142;-67
2021/11/05 01:43:53;;;;;;;15.86;11.72;;;;;;;2.01;100.00;95780.00;1022937;28;20050;-66
2021/11/05 01:44:24;;;;;;;14.40;11.72;;;;;;;2.00;100.00;95768.03;1020651;28;20038;-66
2021/11/05 01:44:54;;;;;;;15.70;12.52;;;;;;;2.02;100.00;95789.34;1020144;28;20389;-66
2021/11/05 01:45:25;;;;;;;17.10;13.48;;;;;;;2.04;100.00;95778.78;1023253;28;20511;-66
2021/11/05 01:45:55;;;;;;;17.73;13.82;;;;;;;2.04;100.00;95779.56;1023322;29;20542;-66
2021/11/05 01:46:28;;;;;;;17.00;12.50;;;;;;;1.89;100.00;95760.94;1012512;29;20500;-66
2021/11/05 01:47:00;;;;;;;18.52;12.77;;;;;;;2.03;100.00;95777.97;1021773;28;20023;-68
2021/11/05 01:47:30;;;;;;;18.28;12.82;;;;;;;2.04;100.00;95778.78;1028935;28;20133;-65
2021/11/05 01:48:01;;;;;;;16.35;13.38;;;;;;;1.98;100.00;95770.06;1022365;28;20473;-65
2021/11/05 01:48:31;;;;;;;18.50;12.40;;;;;;;2.03;100.00;95783.16;1021177;28;20093;-67
2021/11/05 01:49:02;;;;;;;17.85;13.02;;;;;;;2.06;100.00;95781.97;1022538;28;20023;-65
2021/11/05 01:49:32;;;;;;;15.48;12.77;;;;;;;2.06;100.00;95787.94;1019048;29;20019;-66
2021/11/05 01:50:03;;;;;;;16.77;12.32;;;;;;;2.07;100.00;95786.91;1020842;28;20127;-67
2021/11/05 01:50:33;;;;;;;15.15;11.95;;;;;;;2.08;100.00;95782.56;1023392;29;20031;-66
2021/11/05 01:51:04;;;;;;;15.85;12.20;;;;;;;2.04;100.00;95779.56;1019086;29;20036;-66
2021/11/05 01:51:36;;;;;;;14.20;11.90;;;;;;;2.08;100.00;95780.75;1023217;28;20541;-67
2021/11/05 01:52:10;;;;;;;14.84;11.58;;;;;;;2.08;100.00;95775.59;1027269;28;20448;-67
2021/11/05 01:52:41;;;;;;;18.00;12.58;;;;;;;2.09;100.00;95784.94;1027038;28;20666;-66
2021/11/05 01:53:11;;;;;;;19.05;13.10;;;;;;;2.09;100.00;95784.94;1023221;28;20031;-65
2021/11/05 01:53:42;;;;;;;16.75;12.52;;;;;;;2.03;100.00;95772.81;1019826;29;20035;-65
2021/11/05 01:54:12;;;;;;;15.65;12.35;;;;;;;2.08;100.00;95778.16;1019402;29;20027;-67
2021/11/05 01:54:43;;;;;;;16.95;12.82;;;;;;;2.08;100.00;95778.16;1027628;28;20137;-66
2021/11/05 01:55:13;;;;;;;18.67;12.15;;;;;;;2.13;100.00;95785.31;1027024;28;20031;-66
2021/11/05 01:55:47;;;;;;;17.08;12.55;;;;;;;2.13;100.00;95778.31;1027601;28;20038;-66
2021/11/05 01:56:17;;;;;;;16.42;11.62;;;;;;;2.15;100.00;95785.06;1024273;28;20596;-67
2021/11/05 01:56:48;;;;;;;16.10;11.38;;;;;;;2.11;100.00;95776.94;1025212;28;20027;-67
2021/11/05 01:57:18;;;;;;;14.38;11.63;;;;;;;2.17;100.00;95783.09;1027563;28;20022;-67
2021/11/05 01:57:49;;;;;;;16.92;13.00;;;;;;;2.16;100.00;95784.88;1021598;28;20520;-65
2021/11/05 01:58:20;;;;;;;16.13;12.18;;;;;;;2.18;100.00;95782.06;1022416;28;20038;-66
2021/11/05 01:58:51;;;;;;;17.28;12.72;;;;;;;2.19;100.00;95788.84;1023497;28;20591;-65
2021/11/05 01:59:30;;;;;;;16.13;12.50;;;;;;;2.18;100.00;95787.25;1023287;28;20046;-66
2021/11/05 02:00:00;;;;;;;16.28;12.14;;;;;;;2.19;100.00;95775.91;1024495;28;20050;-65
2021/11/05 02:00:31;;;;;;;14.55;11.85;;;;;;;2.10;100.00;95770.97;1022960;28;20497;-66
2021/11/05 02:01:02;;;;;;;15.27;11.75;;;;;;;2.19;100.00;95784.47;1023089;28;20395;-66
2021/11/05 02:01:34;;;;;;;14.42;11.82;;;;;;;2.19;100.00;95778.50;1019296;29;20114;-66
2021/11/05 02:02:07;;;;;;;14.94;11.84;;;;;;;2.20;100.00;95785.25;1015554;29;20199;-66
2021/11/05 02:02:38;;;;;;;13.32;11.36;;;;;;;2.20;100.00;95785.25;1023752;28;20401;-66
2021/11/05 02:03:08;;;;;;;16.13;12.13;;;;;;;2.20;100.00;95783.47;1027878;28;20041;-66
2021/11/05 02:03:39;;;;;;;17.92;12.65;;;;;;;2.22;100.00;95785.84;1027220;28;20094;-67
2021/11/05 02:04:09;;;;;;;13.55;11.68;;;;;;;2.22;100.00;95783.28;1027184;28;20038;-67
2021/11/05 02:04:39;;;;;;;13.13;10.77;;;;;;;2.22;100.00;95783.28;1024159;28;20485;-67
2021/11/05 02:05:10;;;;;;;17.27;11.95;;;;;;;2.17;100.00;95773.53;1024306;28;20039;-65
2021/11/05 02:05:42;;;;;;;14.66;11.26;;;;;;;2.21;100.00;95779.84;1027250;28;20506;-66
2021/11/05 02:06:13;;;;;;;15.92;12.64;;;;;;;2.20;100.00;95780.88;1024970;28;20026;-67
2021/11/05 02:06:45;;;;;;;15.27;11.77;;;;;;;2.22;100.00;95781.47;1022100;28;20031;-67
2021/11/05 02:07:15;;;;;;;14.38;11.52;;;;;;;2.22;100.00;95781.47;1034945;28;20401;-66
2021/11/05 02:07:50;;;;;;;14.25;11.75;;;;;;;2.22;100.00;95783.28;1030364;28;20033;-67
2021/11/05 02:08:20;;;;;;;14.52;11.40;;;;;;;2.24;100.00;95782.03;1019123;28;20674;-67
2021/11/05 02:08:51;;;;;;;15.80;11.85;;;;;;;2.18;100.00;95772.53;1022684;29;20086;-68
2021/11/05 02:09:24;;;;;;;14.32;11.82;;;;;;;2.24;100.00;95783.84;1019536;29;20065;-66
2021/11/05 02:09:57;;;;;;;14.64;11.38;;;;;;;2.24;100.00;95781.25;1018987;29;20295;-66
2021/11/05 02:10:28;;;;;;;13.80;11.22;;;;;;;2.26;100.00;95789.59;1031269;28;20485;-66
2021/11/05 02:10:58;;;;;;;14.95;11.38;;;;;;;2.24;100.00;95779.44;1021675;29;20027;-66
2021/11/05 02:11:28;;;;;;;14.65;11.43;;;;;;;2.14;100.00;95768.75;1009490;29;20029;-66
2021/11/05 02:12:00;;;;;;;13.80;11.52;;;;;;;2.26;100.00;95784.44;1011161;29;20047;-66
2021/11/05 02:12:30;;;;;;;14.60;12.12;;;;;;;2.26;100.00;95785.22;1027124;28;20031;-65
2021/11/05 02:13:01;;;;;;;15.60;11.50;;;;;;;2.26;100.00;95782.63;1030647;28;20018;-65
2021/11/05 02:13:32;;;;;;;15.27;11.68;;;;;;;2.25;100.00;95781.06;1022949;28;20382;-65
2021/11/05 02:14:02;;;;;;;15.20;12.05;;;;;;;2.22;100.00;95778.88;1027130;28;20734;-66
2021/11/05 02:14:33;;;;;;;14.85;12.35;;;;;;;2.23;100.00;95785.63;1023084;29;20031;-65
2021/11/05 02:15:05;;;;;;;17.67;12.75;;;;;;;2.24;100.00;95786.44;1019037;29;20027;-66
2021/11/05 02:15:36;;;;;;;14.80;11.88;;;;;;;2.24;100.00;95783.84;1023041;29;20042;-66
2021/11/05 02:16:06;;;;;;;15.98;11.43;;;;;;;2.22;100.00;95784.06;1019505;29;20581;-66
2021/11/05 02:16:40;;;;;;;13.45;11.05;;;;;;;2.21;100.00;95785.03;1019388;29;20051;-66
2021/11/05 02:17:10;;;;;;;15.18;12.06;;;;;;;2.23;100.00;95787.44;1019481;29;20126;-65
2021/11/05 02:17:41;;;;;;;15.43;11.23;;;;;;;2.15;100.00;95769.53;1021210;28;20031;-66
2021/11/05 02:18:12;;;;;;;14.43;11.20;;;;;;;2.22;100.00;95781.47;1028834;28;20030;-66
2021/11/05 02:18:43;;;;;;;17.52;12.00;;;;;;;2.21;100.00;95789.44;1038306;28;20037;-67
2021/11/05 02:19:15;;;;;;;14.45;12.05;;;;;;;2.20;100.00;95777.50;1034984;28;20094;-66
2021/11/05 02:19:46;;;;;;;14.98;12.10;;;;;;;2.22;100.00;95780.69;1031540;28;20022;-66
2021/11/05 02:20:22;;;;;;;15.70;11.40;;;;;;;2.20;100.00;95780.88;1035204;28;20041;-66
2021/11/05 02:20:55;;;;;;;13.72;11.66;;;;;;;2.04;100.00;95752.91;1023131;29;20464;-66
2021/11/05 02:21:31;;;;;;;14.78;11.84;;;;;;;2.20;100.00;95783.47;1024953;28;20525;-66